sensor_id;sensor_type;location;lat;lon;timestamp;P1;durP1;ratioP1;P2;durP2;ratioP2
15096;SDS011;7649;52.084;7.478;2023-04-01T00:00:36;6.27;;;4.80;;
15096;SDS011;7649;52.084;7.478;2023-04-01T00:03:04;7.20;;;4.70;;
15096;SDS011;7649;52.084;7.478;2023-04-01T00:05:33;7.77;;;4.50;;
15096;SDS011;7649;52.084;7.478;2023-04-01T00:08:01;6.03;;;4.80;;
15096;SDS011;7649;52.084;7.478;2023-04-01T00:10:29;7.10;;;4.63;;
15096;SDS011;7649;52.084;7.478;2023-04-01T00:13:01;6.23;;;4.20;;
15096;SDS011;7649;52.084;7.478;2023-04-01T00:15:29;5.23;;;4.00;;
15096;SDS011;7649;52.084;7.478;2023-04-01T00:17:57;5.90;;;4.00;;
15096;SDS011;7649;52.084;7.478;2023-04-01T00:20:27;5.23;;;3.87;;
15096;SDS011;7649;52.084;7.478;2023-04-01T00:22:55;6.13;;;3.80;;
15096;SDS011;7649;52.084;7.478;2023-04-01T00:25:23;6.97;;;4.10;;
15096;SDS011;7649;52.084;7.478;2023-04-01T00:27:51;6.73;;;3.87;;
15096;SDS011;7649;52.084;7.478;2023-04-01T00:30:21;6.60;;;4.00;;
15096;SDS011;7649;52.084;7.478;2023-04-01T00:32:50;4.83;;;3.40;;
15096;SDS011;7649;52.084;7.478;2023-04-01T00:35:19;5.50;;;3.37;;
15096;SDS011;7649;52.084;7.478;2023-04-01T00:37:48;5.87;;;3.70;;
15096;SDS011;7649;52.084;7.478;2023-04-01T00:40:23;5.03;;;3.30;;
15096;SDS011;7649;52.084;7.478;2023-04-01T00:42:51;5.93;;;3.20;;
15096;SDS011;7649;52.084;7.478;2023-04-01T00:45:27;4.87;;;3.10;;
15096;SDS011;7649;52.084;7.478;2023-04-01T00:47:57;7.00;;;3.40;;
15096;SDS011;7649;52.084;7.478;2023-04-01T00:50:27;4.67;;;3.03;;
15096;SDS011;7649;52.084;7.478;2023-04-01T00:52:56;5.47;;;3.57;;
15096;SDS011;7649;52.084;7.478;2023-04-01T00:55:25;4.67;;;3.63;;
15096;SDS011;7649;52.084;7.478;2023-04-01T00:57:55;3.80;;;3.40;;
15096;SDS011;7649;52.084;7.478;2023-04-01T01:00:26;4.27;;;3.33;;
15096;SDS011;7649;52.084;7.478;2023-04-01T01:02:54;4.07;;;3.40;;
15096;SDS011;7649;52.084;7.478;2023-04-01T01:05:23;6.57;;;3.13;;
15096;SDS011;7649;52.084;7.478;2023-04-01T01:07:56;4.07;;;3.00;;
15096;SDS011;7649;52.084;7.478;2023-04-01T01:10:26;4.27;;;3.17;;
15096;SDS011;7649;52.084;7.478;2023-04-01T01:12:58;3.87;;;3.10;;
15096;SDS011;7649;52.084;7.478;2023-04-01T01:15:30;4.50;;;3.10;;
15096;SDS011;7649;52.084;7.478;2023-04-01T01:18:02;3.50;;;3.20;;
15096;SDS011;7649;52.084;7.478;2023-04-01T01:20:38;3.40;;;3.10;;
15096;SDS011;7649;52.084;7.478;2023-04-01T01:26:01;3.80;;;3.40;;
15096;SDS011;7649;52.084;7.478;2023-04-01T01:28:35;4.60;;;3.20;;
15096;SDS011;7649;52.084;7.478;2023-04-01T01:31:09;4.47;;;3.27;;
15096;SDS011;7649;52.084;7.478;2023-04-01T01:33:48;4.00;;;3.40;;
15096;SDS011;7649;52.084;7.478;2023-04-01T01:36:22;4.33;;;3.20;;
15096;SDS011;7649;52.084;7.478;2023-04-01T01:38:55;4.73;;;3.27;;
15096;SDS011;7649;52.084;7.478;2023-04-01T01:41:24;5.03;;;3.23;;
15096;SDS011;7649;52.084;7.478;2023-04-01T01:43:53;3.10;;;2.80;;
15096;SDS011;7649;52.084;7.478;2023-04-01T01:46:23;4.43;;;3.20;;
15096;SDS011;7649;52.084;7.478;2023-04-01T01:48:52;3.93;;;2.90;;
15096;SDS011;7649;52.084;7.478;2023-04-01T01:51:22;3.20;;;2.90;;
15096;SDS011;7649;52.084;7.478;2023-04-01T01:53:51;3.90;;;2.77;;
15096;SDS011;7649;52.084;7.478;2023-04-01T01:56:19;4.37;;;2.97;;
15096;SDS011;7649;52.084;7.478;2023-04-01T01:58:49;3.70;;;3.17;;
15096;SDS011;7649;52.084;7.478;2023-04-01T02:01:20;3.73;;;3.43;;
15096;SDS011;7649;52.084;7.478;2023-04-01T02:03:49;3.20;;;2.90;;
15096;SDS011;7649;52.084;7.478;2023-04-01T02:06:18;3.27;;;3.03;;
15096;SDS011;7649;52.084;7.478;2023-04-01T02:08:49;4.10;;;3.13;;
15096;SDS011;7649;52.084;7.478;2023-04-01T02:11:20;3.30;;;3.00;;
15096;SDS011;7649;52.084;7.478;2023-04-01T02:13:53;3.97;;;3.40;;
15096;SDS011;7649;52.084;7.478;2023-04-01T02:16:23;5.47;;;3.67;;
15096;SDS011;7649;52.084;7.478;2023-04-01T02:18:55;4.20;;;3.90;;
15096;SDS011;7649;52.084;7.478;2023-04-01T02:21:26;4.63;;;4.10;;
15096;SDS011;7649;52.084;7.478;2023-04-01T02:23:57;4.60;;;4.17;;
15096;SDS011;7649;52.084;7.478;2023-04-01T02:26:26;6.27;;;4.67;;
15096;SDS011;7649;52.084;7.478;2023-04-01T02:28:55;4.97;;;4.27;;
15096;SDS011;7649;52.084;7.478;2023-04-01T02:31:24;4.50;;;4.10;;
15096;SDS011;7649;52.084;7.478;2023-04-01T02:33:53;6.10;;;4.57;;
15096;SDS011;7649;52.084;7.478;2023-04-01T02:36:22;4.90;;;4.40;;
15096;SDS011;7649;52.084;7.478;2023-04-01T02:38:50;4.50;;;4.10;;
15096;SDS011;7649;52.084;7.478;2023-04-01T02:41:22;4.20;;;3.90;;
15096;SDS011;7649;52.084;7.478;2023-04-01T02:43:50;5.07;;;4.43;;
15096;SDS011;7649;52.084;7.478;2023-04-01T02:46:18;5.10;;;4.50;;
15096;SDS011;7649;52.084;7.478;2023-04-01T02:48:46;4.53;;;4.23;;
15096;SDS011;7649;52.084;7.478;2023-04-01T02:51:14;5.30;;;4.60;;
15096;SDS011;7649;52.084;7.478;2023-04-01T02:53:43;3.97;;;3.57;;
15096;SDS011;7649;52.084;7.478;2023-04-01T02:56:12;4.27;;;3.90;;
15096;SDS011;7649;52.084;7.478;2023-04-01T02:58:41;3.53;;;3.23;;
15096;SDS011;7649;52.084;7.478;2023-04-01T03:01:09;3.63;;;3.33;;
15096;SDS011;7649;52.084;7.478;2023-04-01T03:03:38;4.20;;;3.33;;
15096;SDS011;7649;52.084;7.478;2023-04-01T03:06:06;3.53;;;3.23;;
15096;SDS011;7649;52.084;7.478;2023-04-01T03:08:34;3.20;;;2.90;;
15096;SDS011;7649;52.084;7.478;2023-04-01T03:11:03;3.67;;;3.37;;
15096;SDS011;7649;52.084;7.478;2023-04-01T03:13:31;3.47;;;3.17;;
15096;SDS011;7649;52.084;7.478;2023-04-01T03:16:00;3.43;;;3.13;;
15096;SDS011;7649;52.084;7.478;2023-04-01T03:18:29;3.23;;;3.03;;
15096;SDS011;7649;52.084;7.478;2023-04-01T03:20:57;3.00;;;2.87;;
15096;SDS011;7649;52.084;7.478;2023-04-01T03:23:39;4.33;;;2.73;;
15096;SDS011;7649;52.084;7.478;2023-04-01T03:26:07;2.80;;;2.60;;
15096;SDS011;7649;52.084;7.478;2023-04-01T03:28:36;3.10;;;2.80;;
15096;SDS011;7649;52.084;7.478;2023-04-01T03:31:05;2.87;;;2.67;;
15096;SDS011;7649;52.084;7.478;2023-04-01T03:33:34;2.77;;;2.57;;
15096;SDS011;7649;52.084;7.478;2023-04-01T03:36:02;2.53;;;2.40;;
15096;SDS011;7649;52.084;7.478;2023-04-01T03:38:32;2.80;;;2.70;;
15096;SDS011;7649;52.084;7.478;2023-04-01T03:41:01;2.70;;;2.50;;
15096;SDS011;7649;52.084;7.478;2023-04-01T03:43:29;2.47;;;2.37;;
15096;SDS011;7649;52.084;7.478;2023-04-01T03:45:58;3.00;;;2.80;;
15096;SDS011;7649;52.084;7.478;2023-04-01T03:48:27;2.50;;;2.40;;
15096;SDS011;7649;52.084;7.478;2023-04-01T03:50:56;3.20;;;2.90;;
15096;SDS011;7649;52.084;7.478;2023-04-01T03:53:24;3.60;;;3.30;;
15096;SDS011;7649;52.084;7.478;2023-04-01T03:55:53;3.60;;;3.30;;
15096;SDS011;7649;52.084;7.478;2023-04-01T03:58:21;3.40;;;3.20;;
15096;SDS011;7649;52.084;7.478;2023-04-01T04:00:50;4.20;;;3.73;;
15096;SDS011;7649;52.084;7.478;2023-04-01T04:03:18;4.40;;;4.00;;
15096;SDS011;7649;52.084;7.478;2023-04-01T04:05:48;4.50;;;4.20;;
15096;SDS011;7649;52.084;7.478;2023-04-01T04:08:16;5.03;;;4.33;;
15096;SDS011;7649;52.084;7.478;2023-04-01T04:10:47;4.80;;;4.40;;
15096;SDS011;7649;52.084;7.478;2023-04-01T04:13:16;4.80;;;4.50;;
15096;SDS011;7649;52.084;7.478;2023-04-01T04:15:44;5.80;;;4.73;;
15096;SDS011;7649;52.084;7.478;2023-04-01T04:18:12;4.80;;;4.50;;
15096;SDS011;7649;52.084;7.478;2023-04-01T04:20:43;5.10;;;4.70;;
15096;SDS011;7649;52.084;7.478;2023-04-01T04:23:14;5.40;;;4.90;;
15096;SDS011;7649;52.084;7.478;2023-04-01T04:25:52;5.40;;;4.70;;
15096;SDS011;7649;52.084;7.478;2023-04-01T04:28:21;4.67;;;4.20;;
15096;SDS011;7649;52.084;7.478;2023-04-01T04:30:49;4.20;;;3.90;;
15096;SDS011;7649;52.084;7.478;2023-04-01T04:33:17;4.00;;;3.70;;
15096;SDS011;7649;52.084;7.478;2023-04-01T04:35:46;4.23;;;3.93;;
15096;SDS011;7649;52.084;7.478;2023-04-01T04:38:15;3.93;;;3.63;;
15096;SDS011;7649;52.084;7.478;2023-04-01T04:40:44;3.63;;;3.43;;
15096;SDS011;7649;52.084;7.478;2023-04-01T04:43:13;3.80;;;3.50;;
15096;SDS011;7649;52.084;7.478;2023-04-01T04:45:41;3.50;;;3.20;;
15096;SDS011;7649;52.084;7.478;2023-04-01T04:48:10;3.60;;;3.30;;
15096;SDS011;7649;52.084;7.478;2023-04-01T04:50:42;3.10;;;2.70;;
15096;SDS011;7649;52.084;7.478;2023-04-01T04:53:10;2.83;;;2.63;;
15096;SDS011;7649;52.084;7.478;2023-04-01T04:55:43;3.20;;;2.90;;
15096;SDS011;7649;52.084;7.478;2023-04-01T04:58:11;2.90;;;2.70;;
15096;SDS011;7649;52.084;7.478;2023-04-01T05:00:40;2.73;;;2.53;;
15096;SDS011;7649;52.084;7.478;2023-04-01T05:03:08;2.80;;;2.60;;
15096;SDS011;7649;52.084;7.478;2023-04-01T05:05:37;3.23;;;3.03;;
15096;SDS011;7649;52.084;7.478;2023-04-01T05:08:06;3.10;;;2.90;;
15096;SDS011;7649;52.084;7.478;2023-04-01T05:10:34;3.20;;;3.00;;
15096;SDS011;7649;52.084;7.478;2023-04-01T05:13:04;3.03;;;2.73;;
15096;SDS011;7649;52.084;7.478;2023-04-01T05:15:32;2.90;;;2.70;;
15096;SDS011;7649;52.084;7.478;2023-04-01T05:18:00;3.10;;;2.60;;
15096;SDS011;7649;52.084;7.478;2023-04-01T05:20:29;2.90;;;2.70;;
15096;SDS011;7649;52.084;7.478;2023-04-01T05:22:57;3.07;;;2.87;;
15096;SDS011;7649;52.084;7.478;2023-04-01T05:25:25;3.13;;;2.90;;
15096;SDS011;7649;52.084;7.478;2023-04-01T05:27:54;3.33;;;3.10;;
15096;SDS011;7649;52.084;7.478;2023-04-01T05:30:24;3.73;;;3.43;;
15096;SDS011;7649;52.084;7.478;2023-04-01T05:32:52;4.13;;;3.83;;
15096;SDS011;7649;52.084;7.478;2023-04-01T05:35:20;4.03;;;3.73;;
15096;SDS011;7649;52.084;7.478;2023-04-01T05:37:49;4.50;;;4.03;;
15096;SDS011;7649;52.084;7.478;2023-04-01T05:40:17;4.57;;;4.17;;
15096;SDS011;7649;52.084;7.478;2023-04-01T05:42:46;4.10;;;3.80;;
15096;SDS011;7649;52.084;7.478;2023-04-01T05:45:15;4.20;;;3.90;;
15096;SDS011;7649;52.084;7.478;2023-04-01T05:47:44;3.80;;;3.50;;
15096;SDS011;7649;52.084;7.478;2023-04-01T05:50:13;3.60;;;3.40;;
15096;SDS011;7649;52.084;7.478;2023-04-01T05:52:41;4.40;;;3.90;;
15096;SDS011;7649;52.084;7.478;2023-04-01T05:55:10;3.73;;;3.43;;
15096;SDS011;7649;52.084;7.478;2023-04-01T05:57:39;3.47;;;3.17;;
15096;SDS011;7649;52.084;7.478;2023-04-01T06:00:08;3.77;;;3.47;;
15096;SDS011;7649;52.084;7.478;2023-04-01T06:02:36;3.17;;;2.97;;
15096;SDS011;7649;52.084;7.478;2023-04-01T06:05:12;3.93;;;3.57;;
15096;SDS011;7649;52.084;7.478;2023-04-01T06:07:42;3.27;;;3.07;;
15096;SDS011;7649;52.084;7.478;2023-04-01T06:10:12;3.27;;;3.07;;
15096;SDS011;7649;52.084;7.478;2023-04-01T06:12:44;3.63;;;3.33;;
15096;SDS011;7649;52.084;7.478;2023-04-01T06:15:16;3.77;;;3.47;;
15096;SDS011;7649;52.084;7.478;2023-04-01T06:17:50;4.03;;;3.67;;
15096;SDS011;7649;52.084;7.478;2023-04-01T06:20:23;3.90;;;3.60;;
15096;SDS011;7649;52.084;7.478;2023-04-01T06:25:47;5.20;;;4.80;;
15096;SDS011;7649;52.084;7.478;2023-04-01T06:28:27;5.47;;;5.07;;
15096;SDS011;7649;52.084;7.478;2023-04-01T06:30:58;6.20;;;5.70;;
15096;SDS011;7649;52.084;7.478;2023-04-01T06:36:18;5.93;;;5.43;;
15096;SDS011;7649;52.084;7.478;2023-04-01T06:44:20;7.20;;;5.20;;
15096;SDS011;7649;52.084;7.478;2023-04-01T06:46:52;6.17;;;4.93;;
15096;SDS011;7649;52.084;7.478;2023-04-01T06:49:32;4.50;;;4.20;;
15096;SDS011;7649;52.084;7.478;2023-04-01T06:52:05;4.90;;;4.50;;
15096;SDS011;7649;52.084;7.478;2023-04-01T06:54:40;5.77;;;4.53;;
15096;SDS011;7649;52.084;7.478;2023-04-01T06:57:14;4.83;;;4.53;;
15096;SDS011;7649;52.084;7.478;2023-04-01T06:59:46;4.87;;;4.43;;
15096;SDS011;7649;52.084;7.478;2023-04-01T07:02:18;4.47;;;4.07;;
15096;SDS011;7649;52.084;7.478;2023-04-01T07:04:48;4.40;;;4.00;;
15096;SDS011;7649;52.084;7.478;2023-04-01T07:07:21;4.17;;;3.87;;
15096;SDS011;7649;52.084;7.478;2023-04-01T07:09:52;4.87;;;4.17;;
15096;SDS011;7649;52.084;7.478;2023-04-01T07:12:23;4.13;;;3.77;;
15096;SDS011;7649;52.084;7.478;2023-04-01T07:14:56;4.70;;;4.30;;
15096;SDS011;7649;52.084;7.478;2023-04-01T07:17:27;4.77;;;4.37;;
15096;SDS011;7649;52.084;7.478;2023-04-01T07:20:01;4.90;;;4.53;;
15096;SDS011;7649;52.084;7.478;2023-04-01T07:22:32;4.70;;;4.30;;
15096;SDS011;7649;52.084;7.478;2023-04-01T07:25:05;4.30;;;4.00;;
15096;SDS011;7649;52.084;7.478;2023-04-01T07:27:36;4.30;;;4.00;;
15096;SDS011;7649;52.084;7.478;2023-04-01T07:30:13;4.60;;;4.30;;
15096;SDS011;7649;52.084;7.478;2023-04-01T07:32:42;4.97;;;4.57;;
15096;SDS011;7649;52.084;7.478;2023-04-01T07:35:15;4.70;;;4.40;;
15096;SDS011;7649;52.084;7.478;2023-04-01T07:37:48;4.93;;;4.63;;
15096;SDS011;7649;52.084;7.478;2023-04-01T07:40:21;4.30;;;4.00;;
15096;SDS011;7649;52.084;7.478;2023-04-01T07:45:35;4.73;;;4.37;;
15096;SDS011;7649;52.084;7.478;2023-04-01T07:48:09;4.67;;;4.37;;
15096;SDS011;7649;52.084;7.478;2023-04-01T07:50:40;4.00;;;3.70;;
15096;SDS011;7649;52.084;7.478;2023-04-01T07:53:19;4.53;;;4.23;;
15096;SDS011;7649;52.084;7.478;2023-04-01T07:55:52;4.70;;;4.40;;
15096;SDS011;7649;52.084;7.478;2023-04-01T07:58:24;4.40;;;4.00;;
15096;SDS011;7649;52.084;7.478;2023-04-01T08:00:59;4.33;;;4.00;;
15096;SDS011;7649;52.084;7.478;2023-04-01T08:03:33;4.13;;;3.83;;
15096;SDS011;7649;52.084;7.478;2023-04-01T08:06:05;4.10;;;3.80;;
15096;SDS011;7649;52.084;7.478;2023-04-01T08:08:41;3.70;;;3.50;;
15096;SDS011;7649;52.084;7.478;2023-04-01T08:11:16;3.63;;;3.43;;
15096;SDS011;7649;52.084;7.478;2023-04-01T08:13:57;4.30;;;3.80;;
15096;SDS011;7649;52.084;7.478;2023-04-01T08:16:29;4.10;;;3.80;;
15096;SDS011;7649;52.084;7.478;2023-04-01T08:19:01;4.80;;;4.00;;
15096;SDS011;7649;52.084;7.478;2023-04-01T08:21:32;3.97;;;3.67;;
15096;SDS011;7649;52.084;7.478;2023-04-01T08:24:06;3.73;;;3.53;;
15096;SDS011;7649;52.084;7.478;2023-04-01T08:26:38;3.87;;;3.67;;
15096;SDS011;7649;52.084;7.478;2023-04-01T08:29:11;3.50;;;3.20;;
15096;SDS011;7649;52.084;7.478;2023-04-01T08:31:43;4.33;;;3.30;;
15096;SDS011;7649;52.084;7.478;2023-04-01T08:34:14;3.93;;;3.63;;
15096;SDS011;7649;52.084;7.478;2023-04-01T08:36:44;4.80;;;4.40;;
15096;SDS011;7649;52.084;7.478;2023-04-01T08:39:17;3.33;;;3.13;;
15096;SDS011;7649;52.084;7.478;2023-04-01T08:44:42;4.07;;;3.77;;
15096;SDS011;7649;52.084;7.478;2023-04-01T08:47:20;4.43;;;4.13;;
15096;SDS011;7649;52.084;7.478;2023-04-01T08:50:05;4.70;;;4.30;;
15096;SDS011;7649;52.084;7.478;2023-04-01T08:52:40;4.70;;;4.30;;
15096;SDS011;7649;52.084;7.478;2023-04-01T08:55:19;4.70;;;4.30;;
15096;SDS011;7649;52.084;7.478;2023-04-01T08:57:53;3.93;;;3.70;;
15096;SDS011;7649;52.084;7.478;2023-04-01T09:00:30;3.73;;;3.53;;
15096;SDS011;7649;52.084;7.478;2023-04-01T09:03:12;4.57;;;4.17;;
15096;SDS011;7649;52.084;7.478;2023-04-01T09:08:33;4.20;;;3.90;;
15096;SDS011;7649;52.084;7.478;2023-04-01T09:11:07;4.27;;;3.87;;
15096;SDS011;7649;52.084;7.478;2023-04-01T09:13:40;4.50;;;4.20;;
15096;SDS011;7649;52.084;7.478;2023-04-01T09:16:16;5.27;;;4.87;;
15096;SDS011;7649;52.084;7.478;2023-04-01T09:18:49;5.20;;;4.80;;
15096;SDS011;7649;52.084;7.478;2023-04-01T09:21:24;3.80;;;3.60;;
15096;SDS011;7649;52.084;7.478;2023-04-01T09:26:58;3.17;;;2.97;;
15096;SDS011;7649;52.084;7.478;2023-04-01T09:32:23;2.70;;;2.60;;
15096;SDS011;7649;52.084;7.478;2023-04-01T09:34:58;3.00;;;2.80;;
15096;SDS011;7649;52.084;7.478;2023-04-01T09:37:33;3.30;;;3.10;;
15096;SDS011;7649;52.084;7.478;2023-04-01T09:40:15;4.00;;;3.80;;
15096;SDS011;7649;52.084;7.478;2023-04-01T09:42:48;2.30;;;2.20;;
15096;SDS011;7649;52.084;7.478;2023-04-01T09:45:25;3.03;;;2.83;;
15096;SDS011;7649;52.084;7.478;2023-04-01T09:48:01;3.00;;;2.80;;
15096;SDS011;7649;52.084;7.478;2023-04-01T09:50:32;2.50;;;2.40;;
15096;SDS011;7649;52.084;7.478;2023-04-01T09:53:06;2.87;;;2.67;;
15096;SDS011;7649;52.084;7.478;2023-04-01T09:55:52;3.53;;;3.30;;
15096;SDS011;7649;52.084;7.478;2023-04-01T09:58:35;3.70;;;3.50;;
15096;SDS011;7649;52.084;7.478;2023-04-01T10:01:13;2.77;;;2.63;;
15096;SDS011;7649;52.084;7.478;2023-04-01T10:04:04;3.37;;;3.17;;
15096;SDS011;7649;52.084;7.478;2023-04-01T10:06:57;3.37;;;3.17;;
15096;SDS011;7649;52.084;7.478;2023-04-01T10:09:31;3.50;;;3.30;;
15096;SDS011;7649;52.084;7.478;2023-04-01T10:12:17;3.30;;;3.10;;
15096;SDS011;7649;52.084;7.478;2023-04-01T10:20:40;2.93;;;2.43;;
15096;SDS011;7649;52.084;7.478;2023-04-01T10:23:27;2.63;;;2.50;;
15096;SDS011;7649;52.084;7.478;2023-04-01T10:26:10;2.47;;;2.37;;
15096;SDS011;7649;52.084;7.478;2023-04-01T10:28:46;1.80;;;1.70;;
15096;SDS011;7649;52.084;7.478;2023-04-01T10:36:48;2.60;;;2.50;;
15096;SDS011;7649;52.084;7.478;2023-04-01T10:39:33;2.93;;;2.73;;
15096;SDS011;7649;52.084;7.478;2023-04-01T10:53:47;2.50;;;2.40;;
15096;SDS011;7649;52.084;7.478;2023-04-01T10:56:24;2.90;;;2.70;;
15096;SDS011;7649;52.084;7.478;2023-04-01T11:05:04;2.50;;;2.40;;
15096;SDS011;7649;52.084;7.478;2023-04-01T11:10:53;2.30;;;2.20;;
15096;SDS011;7649;52.084;7.478;2023-04-01T11:13:32;2.50;;;2.40;;
15096;SDS011;7649;52.084;7.478;2023-04-01T11:19:16;2.40;;;2.30;;
15096;SDS011;7649;52.084;7.478;2023-04-01T11:24:41;2.93;;;2.73;;
15096;SDS011;7649;52.084;7.478;2023-04-01T11:27:18;2.03;;;1.93;;
15096;SDS011;7649;52.084;7.478;2023-04-01T11:29:52;2.00;;;1.90;;
15096;SDS011;7649;52.084;7.478;2023-04-01T11:32:39;1.50;;;1.50;;
15096;SDS011;7649;52.084;7.478;2023-04-01T11:37:57;4.00;;;3.70;;
15096;SDS011;7649;52.084;7.478;2023-04-01T11:40:31;1.93;;;1.60;;
15096;SDS011;7649;52.084;7.478;2023-04-01T11:43:06;2.00;;;1.90;;
15096;SDS011;7649;52.084;7.478;2023-04-01T11:45:49;3.10;;;2.90;;
15096;SDS011;7649;52.084;7.478;2023-04-01T11:48:22;3.93;;;3.00;;
15096;SDS011;7649;52.084;7.478;2023-04-01T11:53:41;2.70;;;2.60;;
15096;SDS011;7649;52.084;7.478;2023-04-01T11:56:21;3.10;;;2.90;;
15096;SDS011;7649;52.084;7.478;2023-04-01T11:59:05;4.07;;;2.60;;
15096;SDS011;7649;52.084;7.478;2023-04-01T12:01:41;2.10;;;2.00;;
15096;SDS011;7649;52.084;7.478;2023-04-01T12:06:56;2.77;;;2.57;;
15096;SDS011;7649;52.084;7.478;2023-04-01T12:09:29;3.20;;;2.80;;
15096;SDS011;7649;52.084;7.478;2023-04-01T12:12:06;2.60;;;2.50;;
15096;SDS011;7649;52.084;7.478;2023-04-01T12:14:40;2.10;;;2.00;;
15096;SDS011;7649;52.084;7.478;2023-04-01T12:17:12;3.07;;;2.87;;
15096;SDS011;7649;52.084;7.478;2023-04-01T12:19:44;6.20;;;3.20;;
15096;SDS011;7649;52.084;7.478;2023-04-01T12:25:07;3.50;;;3.20;;
15096;SDS011;7649;52.084;7.478;2023-04-01T12:27:43;2.53;;;2.43;;
15096;SDS011;7649;52.084;7.478;2023-04-01T12:30:28;3.73;;;2.27;;
15096;SDS011;7649;52.084;7.478;2023-04-01T12:33:02;2.60;;;2.40;;
15096;SDS011;7649;52.084;7.478;2023-04-01T12:35:34;2.47;;;2.33;;
15096;SDS011;7649;52.084;7.478;2023-04-01T12:38:10;4.33;;;2.43;;
15096;SDS011;7649;52.084;7.478;2023-04-01T12:43:35;2.20;;;2.03;;
15096;SDS011;7649;52.084;7.478;2023-04-01T12:46:13;2.70;;;2.60;;
15096;SDS011;7649;52.084;7.478;2023-04-01T12:48:56;2.63;;;2.43;;
15096;SDS011;7649;52.084;7.478;2023-04-01T12:51:41;3.10;;;2.90;;
15096;SDS011;7649;52.084;7.478;2023-04-01T12:54:17;3.10;;;2.90;;
15096;SDS011;7649;52.084;7.478;2023-04-01T12:56:50;3.67;;;2.80;;
15096;SDS011;7649;52.084;7.478;2023-04-01T13:02:20;3.50;;;3.20;;
15096;SDS011;7649;52.084;7.478;2023-04-01T13:07:47;3.07;;;2.97;;
15096;SDS011;7649;52.084;7.478;2023-04-01T13:10:20;3.20;;;3.00;;
15096;SDS011;7649;52.084;7.478;2023-04-01T13:12:58;3.60;;;3.30;;
15096;SDS011;7649;52.084;7.478;2023-04-01T13:15:32;3.70;;;3.50;;
15096;SDS011;7649;52.084;7.478;2023-04-01T13:18:10;3.60;;;3.40;;
15096;SDS011;7649;52.084;7.478;2023-04-01T13:20:44;4.53;;;4.07;;
15096;SDS011;7649;52.084;7.478;2023-04-01T13:23:16;4.50;;;4.20;;
15096;SDS011;7649;52.084;7.478;2023-04-01T13:25:47;5.03;;;4.70;;
15096;SDS011;7649;52.084;7.478;2023-04-01T13:28:33;4.80;;;4.40;;
15096;SDS011;7649;52.084;7.478;2023-04-01T13:31:05;4.97;;;4.57;;
15096;SDS011;7649;52.084;7.478;2023-04-01T13:33:40;4.80;;;4.50;;
15096;SDS011;7649;52.084;7.478;2023-04-01T13:36:13;4.57;;;4.27;;
15096;SDS011;7649;52.084;7.478;2023-04-01T13:38:52;4.70;;;4.40;;
15096;SDS011;7649;52.084;7.478;2023-04-01T13:41:27;5.17;;;4.87;;
15096;SDS011;7649;52.084;7.478;2023-04-01T13:43:59;5.20;;;4.90;;
15096;SDS011;7649;52.084;7.478;2023-04-01T13:46:41;5.73;;;5.33;;
15096;SDS011;7649;52.084;7.478;2023-04-01T13:49:21;7.50;;;6.90;;
15096;SDS011;7649;52.084;7.478;2023-04-01T13:54:42;4.93;;;4.60;;
15096;SDS011;7649;52.084;7.478;2023-04-01T13:57:19;4.53;;;4.13;;
15096;SDS011;7649;52.084;7.478;2023-04-01T14:00:10;4.17;;;3.90;;
15096;SDS011;7649;52.084;7.478;2023-04-01T14:02:50;4.90;;;4.50;;
15096;SDS011;7649;52.084;7.478;2023-04-01T14:05:35;6.43;;;5.83;;
15096;SDS011;7649;52.084;7.478;2023-04-01T14:08:10;5.50;;;5.10;;
15096;SDS011;7649;52.084;7.478;2023-04-01T14:10:43;4.80;;;4.50;;
15096;SDS011;7649;52.084;7.478;2023-04-01T14:13:18;5.33;;;4.93;;
15096;SDS011;7649;52.084;7.478;2023-04-01T14:15:57;4.20;;;3.90;;
15096;SDS011;7649;52.084;7.478;2023-04-01T14:18:33;4.13;;;3.83;;
15096;SDS011;7649;52.084;7.478;2023-04-01T14:21:13;3.13;;;2.93;;
15096;SDS011;7649;52.084;7.478;2023-04-01T14:29:22;3.60;;;3.30;;
15096;SDS011;7649;52.084;7.478;2023-04-01T14:32:02;3.97;;;3.67;;
15096;SDS011;7649;52.084;7.478;2023-04-01T14:34:36;4.47;;;4.07;;
15096;SDS011;7649;52.084;7.478;2023-04-01T14:37:22;4.43;;;4.00;;
15096;SDS011;7649;52.084;7.478;2023-04-01T14:40:00;4.37;;;3.97;;
15096;SDS011;7649;52.084;7.478;2023-04-01T14:42:41;5.97;;;5.00;;
15096;SDS011;7649;52.084;7.478;2023-04-01T14:45:22;4.20;;;3.90;;
15096;SDS011;7649;52.084;7.478;2023-04-01T14:47:53;4.03;;;3.77;;
15096;SDS011;7649;52.084;7.478;2023-04-01T14:50:23;4.00;;;3.60;;
15096;SDS011;7649;52.084;7.478;2023-04-01T14:52:57;3.93;;;3.63;;
15096;SDS011;7649;52.084;7.478;2023-04-01T14:55:36;3.53;;;3.33;;
15096;SDS011;7649;52.084;7.478;2023-04-01T14:58:13;3.70;;;3.50;;
15096;SDS011;7649;52.084;7.478;2023-04-01T15:00:50;4.03;;;3.73;;
15096;SDS011;7649;52.084;7.478;2023-04-01T15:03:22;4.03;;;3.73;;
15096;SDS011;7649;52.084;7.478;2023-04-01T15:05:54;3.67;;;3.37;;
15096;SDS011;7649;52.084;7.478;2023-04-01T15:08:26;5.90;;;3.80;;
15096;SDS011;7649;52.084;7.478;2023-04-01T15:11:12;3.33;;;3.03;;
15096;SDS011;7649;52.084;7.478;2023-04-01T15:13:58;4.40;;;3.37;;
15096;SDS011;7649;52.084;7.478;2023-04-01T15:16:31;3.40;;;3.20;;
15096;SDS011;7649;52.084;7.478;2023-04-01T15:19:05;3.77;;;3.57;;
15096;SDS011;7649;52.084;7.478;2023-04-01T15:21:41;4.80;;;3.33;;
15096;SDS011;7649;52.084;7.478;2023-04-01T15:24:14;3.37;;;3.10;;
15096;SDS011;7649;52.084;7.478;2023-04-01T15:26:48;3.30;;;3.10;;
15096;SDS011;7649;52.084;7.478;2023-04-01T15:29:30;3.70;;;3.40;;
15096;SDS011;7649;52.084;7.478;2023-04-01T15:32:04;4.60;;;4.20;;
15096;SDS011;7649;52.084;7.478;2023-04-01T15:34:38;3.97;;;3.53;;
15096;SDS011;7649;52.084;7.478;2023-04-01T15:37:10;3.80;;;3.50;;
15096;SDS011;7649;52.084;7.478;2023-04-01T15:39:46;4.07;;;3.77;;
15096;SDS011;7649;52.084;7.478;2023-04-01T15:42:19;3.50;;;3.30;;
15096;SDS011;7649;52.084;7.478;2023-04-01T15:44:53;3.60;;;3.30;;
15096;SDS011;7649;52.084;7.478;2023-04-01T15:47:40;3.60;;;3.40;;
15096;SDS011;7649;52.084;7.478;2023-04-01T15:52:58;3.57;;;3.23;;
15096;SDS011;7649;52.084;7.478;2023-04-01T15:55:34;3.17;;;2.40;;
15096;SDS011;7649;52.084;7.478;2023-04-01T15:58:15;2.50;;;2.30;;
15096;SDS011;7649;52.084;7.478;2023-04-01T16:00:46;2.30;;;2.20;;
15096;SDS011;7649;52.084;7.478;2023-04-01T16:03:20;2.33;;;2.20;;
15096;SDS011;7649;52.084;7.478;2023-04-01T16:05:59;2.00;;;1.90;;
15096;SDS011;7649;52.084;7.478;2023-04-01T16:08:38;1.90;;;1.80;;
15096;SDS011;7649;52.084;7.478;2023-04-01T16:11:13;2.40;;;2.00;;
15096;SDS011;7649;52.084;7.478;2023-04-01T16:13:46;2.10;;;1.90;;
15096;SDS011;7649;52.084;7.478;2023-04-01T16:16:19;2.30;;;2.20;;
15096;SDS011;7649;52.084;7.478;2023-04-01T16:18:54;2.17;;;1.97;;
15096;SDS011;7649;52.084;7.478;2023-04-01T16:21:26;1.90;;;1.80;;
15096;SDS011;7649;52.084;7.478;2023-04-01T16:24:03;2.20;;;2.10;;
15096;SDS011;7649;52.084;7.478;2023-04-01T16:26:36;2.40;;;2.20;;
15096;SDS011;7649;52.084;7.478;2023-04-01T16:29:06;1.90;;;1.80;;
15096;SDS011;7649;52.084;7.478;2023-04-01T16:31:42;1.20;;;1.20;;
15096;SDS011;7649;52.084;7.478;2023-04-01T16:34:14;1.47;;;1.37;;
15096;SDS011;7649;52.084;7.478;2023-04-01T16:36:45;1.37;;;1.20;;
15096;SDS011;7649;52.084;7.478;2023-04-01T16:39:19;1.83;;;1.73;;
15096;SDS011;7649;52.084;7.478;2023-04-01T16:41:57;1.50;;;1.40;;
15096;SDS011;7649;52.084;7.478;2023-04-01T16:44:27;1.77;;;1.67;;
15096;SDS011;7649;52.084;7.478;2023-04-01T16:46:57;2.60;;;2.40;;
15096;SDS011;7649;52.084;7.478;2023-04-01T16:49:28;1.33;;;1.23;;
15096;SDS011;7649;52.084;7.478;2023-04-01T16:54:51;1.37;;;1.37;;
15096;SDS011;7649;52.084;7.478;2023-04-01T16:57:23;1.20;;;1.10;;
15096;SDS011;7649;52.084;7.478;2023-04-01T16:59:55;1.17;;;1.17;;
15096;SDS011;7649;52.084;7.478;2023-04-01T17:02:26;3.07;;;1.00;;
15096;SDS011;7649;52.084;7.478;2023-04-01T17:04:57;2.30;;;2.20;;
15096;SDS011;7649;52.084;7.478;2023-04-01T17:07:29;0.97;;;0.97;;
15096;SDS011;7649;52.084;7.478;2023-04-01T17:10:05;1.90;;;1.00;;
15096;SDS011;7649;52.084;7.478;2023-04-01T17:12:38;0.90;;;0.90;;
15096;SDS011;7649;52.084;7.478;2023-04-01T17:15:12;0.57;;;0.57;;